sensor_id;sensor_type;location;lat;lon;timestamp;temperature;humidity
46752;DHT22;32497;48.936;9.270;2024-01-06T00:02:56;4.70;88.40
46752;DHT22;32497;48.936;9.270;2024-01-06T00:07:58;4.60;88.80
46752;DHT22;32497;48.936;9.270;2024-01-06T00:13:00;4.60;89.10
46752;DHT22;32497;48.936;9.270;2024-01-06T00:18:01;4.50;89.20
46752;DHT22;32497;48.936;9.270;2024-01-06T00:23:03;4.50;89.40
46752;DHT22;32497;48.936;9.270;2024-01-06T00:28:05;4.40;89.40
46752;DHT22;32497;48.936;9.270;2024-01-06T00:33:06;4.30;89.60
46752;DHT22;32497;48.936;9.270;2024-01-06T00:38:08;4.40;89.70
46752;DHT22;32497;48.936;9.270;2024-01-06T00:43:09;4.40;89.80
46752;DHT22;32497;48.936;9.270;2024-01-06T00:48:10;4.40;89.70
46752;DHT22;32497;48.936;9.270;2024-01-06T00:53:13;4.40;89.60
46752;DHT22;32497;48.936;9.270;2024-01-06T00:58:14;4.40;89.50
46752;DHT22;32497;48.936;9.270;2024-01-06T01:03:15;4.50;89.20
46752;DHT22;32497;48.936;9.270;2024-01-06T01:08:18;4.50;89.00
46752;DHT22;32497;48.936;9.270;2024-01-06T01:13:19;4.50;88.70
46752;DHT22;32497;48.936;9.270;2024-01-06T01:18:20;4.40;88.70
46752;DHT22;32497;48.936;9.270;2024-01-06T01:23:22;4.30;88.80
46752;DHT22;32497;48.936;9.270;2024-01-06T01:28:23;4.30;89.00
46752;DHT22;32497;48.936;9.270;2024-01-06T01:33:25;4.30;89.30
46752;DHT22;32497;48.936;9.270;2024-01-06T01:38:27;4.20;89.20
46752;DHT22;32497;48.936;9.270;2024-01-06T01:43:29;4.20;89.40
46752;DHT22;32497;48.936;9.270;2024-01-06T01:48:30;4.20;89.40
46752;DHT22;32497;48.936;9.270;2024-01-06T01:53:33;4.20;89.40
46752;DHT22;32497;48.936;9.270;2024-01-06T01:58:34;4.30;89.40
46752;DHT22;32497;48.936;9.270;2024-01-06T02:03:35;4.30;89.20
46752;DHT22;32497;48.936;9.270;2024-01-06T02:08:38;4.30;89.00
46752;DHT22;32497;48.936;9.270;2024-01-06T02:13:39;4.40;88.90
46752;DHT22;32497;48.936;9.270;2024-01-06T02:18:40;4.40;88.90
46752;DHT22;32497;48.936;9.270;2024-01-06T02:23:43;4.30;89.10
46752;DHT22;32497;48.936;9.270;2024-01-06T02:28:44;4.40;88.90
46752;DHT22;32497;48.936;9.270;2024-01-06T02:33:45;4.40;88.80
46752;DHT22;32497;48.936;9.270;2024-01-06T02:38:47;4.40;88.50
46752;DHT22;32497;48.936;9.270;2024-01-06T02:43:48;4.50;88.40
46752;DHT22;32497;48.936;9.270;2024-01-06T02:48:50;4.40;88.20
46752;DHT22;32497;48.936;9.270;2024-01-06T02:53:52;4.50;88.20
46752;DHT22;32497;48.936;9.270;2024-01-06T02:58:53;4.50;88.10
46752;DHT22;32497;48.936;9.270;2024-01-06T03:03:54;4.50;87.90
46752;DHT22;32497;48.936;9.270;2024-01-06T03:08:57;4.60;87.70
46752;DHT22;32497;48.936;9.270;2024-01-06T03:13:58;4.50;87.50
46752;DHT22;32497;48.936;9.270;2024-01-06T03:18:59;4.50;87.30
46752;DHT22;32497;48.936;9.270;2024-01-06T03:24:01;4.50;87.30
46752;DHT22;32497;48.936;9.270;2024-01-06T03:29:03;4.40;86.90
46752;DHT22;32497;48.936;9.270;2024-01-06T03:34:04;4.40;86.90
46752;DHT22;32497;48.936;9.270;2024-01-06T03:39:07;4.30;86.90
46752;DHT22;32497;48.936;9.270;2024-01-06T03:44:08;4.30;86.90
46752;DHT22;32497;48.936;9.270;2024-01-06T03:49:09;4.30;86.70
46752;DHT22;32497;48.936;9.270;2024-01-06T03:54:12;4.30;86.50
46752;DHT22;32497;48.936;9.270;2024-01-06T03:59:13;4.40;86.30
46752;DHT22;32497;48.936;9.270;2024-01-06T04:04:14;4.30;86.30
46752;DHT22;32497;48.936;9.270;2024-01-06T04:09:16;4.30;86.00
46752;DHT22;32497;48.936;9.270;2024-01-06T04:14:17;4.40;85.90
46752;DHT22;32497;48.936;9.270;2024-01-06T04:19:18;4.40;85.70
46752;DHT22;32497;48.936;9.270;2024-01-06T04:24:21;4.40;85.70
46752;DHT22;32497;48.936;9.270;2024-01-06T04:29:22;4.40;85.90
46752;DHT22;32497;48.936;9.270;2024-01-06T04:34:23;4.40;85.90
46752;DHT22;32497;48.936;9.270;2024-01-06T04:39:25;4.40;85.80
46752;DHT22;32497;48.936;9.270;2024-01-06T04:44:27;4.30;86.00
46752;DHT22;32497;48.936;9.270;2024-01-06T04:49:28;4.30;86.00
46752;DHT22;32497;48.936;9.270;2024-01-06T04:54:30;4.30;86.20
46752;DHT22;32497;48.936;9.270;2024-01-06T04:59:31;4.40;86.30
46752;DHT22;32497;48.936;9.270;2024-01-06T05:04:32;4.30;86.30
46752;DHT22;32497;48.936;9.270;2024-01-06T05:09:35;4.20;86.50
46752;DHT22;32497;48.936;9.270;2024-01-06T05:14:36;4.20;86.80
46752;DHT22;32497;48.936;9.270;2024-01-06T05:19:37;4.10;87.20
46752;DHT22;32497;48.936;9.270;2024-01-06T05:24:39;4.20;87.30
46752;DHT22;32497;48.936;9.270;2024-01-06T05:29:40;4.30;86.80
46752;DHT22;32497;48.936;9.270;2024-01-06T05:34:41;4.20;86.80
46752;DHT22;32497;48.936;9.270;2024-01-06T05:39:44;4.20;86.80
46752;DHT22;32497;48.936;9.270;2024-01-06T05:44:45;4.10;86.90
46752;DHT22;32497;48.936;9.270;2024-01-06T05:49:46;4.10;87.20
46752;DHT22;32497;48.936;9.270;2024-01-06T05:54:48;4.00;87.40
46752;DHT22;32497;48.936;9.270;2024-01-06T05:59:50;3.90;87.50
46752;DHT22;32497;48.936;9.270;2024-01-06T06:04:51;3.90;87.60
46752;DHT22;32497;48.936;9.270;2024-01-06T06:09:53;3.70;87.90
46752;DHT22;32497;48.936;9.270;2024-01-06T06:14:54;3.70;88.10
46752;DHT22;32497;48.936;9.270;2024-01-06T06:19:56;3.60;88.30
46752;DHT22;32497;48.936;9.270;2024-01-06T06:24:58;3.50;88.50
46752;DHT22;32497;48.936;9.270;2024-01-06T06:30:00;3.50;88.50
46752;DHT22;32497;48.936;9.270;2024-01-06T06:35:01;3.40;88.80
46752;DHT22;32497;48.936;9.270;2024-01-06T06:40:04;3.40;89.10
46752;DHT22;32497;48.936;9.270;2024-01-06T06:45:06;3.60;89.30
46752;DHT22;32497;48.936;9.270;2024-01-06T06:50:07;3.70;89.20
46752;DHT22;32497;48.936;9.270;2024-01-06T06:55:10;3.80;88.80
46752;DHT22;32497;48.936;9.270;2024-01-06T07:00:12;3.90;88.40
46752;DHT22;32497;48.936;9.270;2024-01-06T07:05:13;4.00;88.00
46752;DHT22;32497;48.936;9.270;2024-01-06T07:10:16;4.10;87.70
46752;DHT22;32497;48.936;9.270;2024-01-06T07:15:17;4.10;87.60
46752;DHT22;32497;48.936;9.270;2024-01-06T07:20:18;4.20;87.30
46752;DHT22;32497;48.936;9.270;2024-01-06T07:25:20;4.30;86.80
46752;DHT22;32497;48.936;9.270;2024-01-06T07:30:22;4.30;86.50
46752;DHT22;32497;48.936;9.270;2024-01-06T07:35:23;4.40;86.40
46752;DHT22;32497;48.936;9.270;2024-01-06T07:40:25;4.40;86.00
46752;DHT22;32497;48.936;9.270;2024-01-06T07:45:26;4.40;85.00
46752;DHT22;32497;48.936;9.270;2024-01-06T07:50:27;4.50;84.90
46752;DHT22;32497;48.936;9.270;2024-01-06T07:55:30;4.60;84.30
46752;DHT22;32497;48.936;9.270;2024-01-06T08:00:31;4.60;83.60
46752;DHT22;32497;48.936;9.270;2024-01-06T08:05:32;4.70;84.00
46752;DHT22;32497;48.936;9.270;2024-01-06T08:10:34;4.90;84.20
46752;DHT22;32497;48.936;9.270;2024-01-06T08:15:35;4.90;83.70
46752;DHT22;32497;48.936;9.270;2024-01-06T08:20:36;5.00;83.70
46752;DHT22;32497;48.936;9.270;2024-01-06T08:25:39;5.10;83.50
46752;DHT22;32497;48.936;9.270;2024-01-06T08:30:40;5.10;83.30
46752;DHT22;32497;48.936;9.270;2024-01-06T08:35:41;5.10;82.70
46752;DHT22;32497;48.936;9.270;2024-01-06T08:40:44;5.10;83.00
46752;DHT22;32497;48.936;9.270;2024-01-06T08:45:45;5.20;82.10
46752;DHT22;32497;48.936;9.270;2024-01-06T08:50:46;5.30;82.50
46752;DHT22;32497;48.936;9.270;2024-01-06T08:55:49;5.50;82.10
46752;DHT22;32497;48.936;9.270;2024-01-06T09:00:50;5.50;82.20
46752;DHT22;32497;48.936;9.270;2024-01-06T09:05:51;5.40;82.90
46752;DHT22;32497;48.936;9.270;2024-01-06T09:10:55;5.50;83.10
46752;DHT22;32497;48.936;9.270;2024-01-06T09:15:56;5.70;82.90
46752;DHT22;32497;48.936;9.270;2024-01-06T09:20:57;6.00;82.60
46752;DHT22;32497;48.936;9.270;2024-01-06T09:26:00;6.50;81.20
46752;DHT22;32497;48.936;9.270;2024-01-06T09:31:01;6.70;81.30
46752;DHT22;32497;48.936;9.270;2024-01-06T09:36:02;6.60;80.20
46752;DHT22;32497;48.936;9.270;2024-01-06T09:41:05;6.60;80.70
46752;DHT22;32497;48.936;9.270;2024-01-06T09:46:10;6.50;80.60
46752;DHT22;32497;48.936;9.270;2024-01-06T09:51:15;6.10;81.90
46752;DHT22;32497;48.936;9.270;2024-01-06T09:56:18;5.90;83.40
46752;DHT22;32497;48.936;9.270;2024-01-06T10:01:20;5.80;84.00
46752;DHT22;32497;48.936;9.270;2024-01-06T10:06:21;5.80;84.30
46752;DHT22;32497;48.936;9.270;2024-01-06T10:11:23;6.00;84.30
46752;DHT22;32497;48.936;9.270;2024-01-06T10:16:24;6.10;84.10
46752;DHT22;32497;48.936;9.270;2024-01-06T10:21:25;6.00;84.20
46752;DHT22;32497;48.936;9.270;2024-01-06T10:26:29;5.90;83.70
46752;DHT22;32497;48.936;9.270;2024-01-06T10:31:30;5.90;84.80
46752;DHT22;32497;48.936;9.270;2024-01-06T10:36:31;5.80;84.30
46752;DHT22;32497;48.936;9.270;2024-01-06T10:41:34;6.00;84.70
46752;DHT22;32497;48.936;9.270;2024-01-06T10:46:37;5.90;84.50
46752;DHT22;32497;48.936;9.270;2024-01-06T10:51:38;5.90;84.90
46752;DHT22;32497;48.936;9.270;2024-01-06T10:56:41;6.00;84.70
46752;DHT22;32497;48.936;9.270;2024-01-06T11:01:44;6.20;84.40
46752;DHT22;32497;48.936;9.270;2024-01-06T11:07:01;6.20;84.00
46752;DHT22;32497;48.936;9.270;2024-01-06T11:12:04;6.20;83.70
46752;DHT22;32497;48.936;9.270;2024-01-06T11:17:06;6.10;84.00
46752;DHT22;32497;48.936;9.270;2024-01-06T11:22:25;6.10;84.50
46752;DHT22;32497;48.936;9.270;2024-01-06T11:27:28;6.00;85.20
46752;DHT22;32497;48.936;9.270;2024-01-06T11:32:32;6.00;86.30
46752;DHT22;32497;48.936;9.270;2024-01-06T11:37:50;6.20;86.80
46752;DHT22;32497;48.936;9.270;2024-01-06T11:43:04;6.20;85.60
46752;DHT22;32497;48.936;9.270;2024-01-06T11:48:06;6.10;85.10
46752;DHT22;32497;48.936;9.270;2024-01-06T11:53:08;6.10;85.90
46752;DHT22;32497;48.936;9.270;2024-01-06T11:58:11;6.00;85.60
46752;DHT22;32497;48.936;9.270;2024-01-06T12:03:16;5.90;86.40
46752;DHT22;32497;48.936;9.270;2024-01-06T12:08:19;6.00;86.30
46752;DHT22;32497;48.936;9.270;2024-01-06T12:13:21;6.00;86.00
46752;DHT22;32497;48.936;9.270;2024-01-06T12:18:22;6.20;85.80
46752;DHT22;32497;48.936;9.270;2024-01-06T12:23:24;6.40;84.60
46752;DHT22;32497;48.936;9.270;2024-01-06T12:28:27;6.30;84.20
46752;DHT22;32497;48.936;9.270;2024-01-06T12:33:29;6.30;84.80
46752;DHT22;32497;48.936;9.270;2024-01-06T12:38:30;6.40;84.10
46752;DHT22;32497;48.936;9.270;2024-01-06T12:43:32;6.20;84.40
46752;DHT22;32497;48.936;9.270;2024-01-06T12:48:33;6.30;84.80
46752;DHT22;32497;48.936;9.270;2024-01-06T12:53:34;6.20;83.90
46752;DHT22;32497;48.936;9.270;2024-01-06T12:58:37;6.20;84.20
46752;DHT22;32497;48.936;9.270;2024-01-06T13:03:38;6.30;84.00
46752;DHT22;32497;48.936;9.270;2024-01-06T13:08:40;6.40;83.70
46752;DHT22;32497;48.936;9.270;2024-01-06T13:13:42;6.40;83.90
46752;DHT22;32497;48.936;9.270;2024-01-06T13:18:43;6.30;83.90
46752;DHT22;32497;48.936;9.270;2024-01-06T13:23:44;6.20;83.80
46752;DHT22;32497;48.936;9.270;2024-01-06T13:28:47;6.20;84.50
46752;DHT22;32497;48.936;9.270;2024-01-06T13:33:48;6.10;84.20
46752;DHT22;32497;48.936;9.270;2024-01-06T13:38:49;6.00;84.30
46752;DHT22;32497;48.936;9.270;2024-01-06T13:43:51;6.00;85.00
46752;DHT22;32497;48.936;9.270;2024-01-06T13:48:53;5.90;85.00
46752;DHT22;32497;48.936;9.270;2024-01-06T13:53:54;5.90;85.60
46752;DHT22;32497;48.936;9.270;2024-01-06T13:58:56;5.90;85.60
46752;DHT22;32497;48.936;9.270;2024-01-06T14:03:57;6.00;85.60
46752;DHT22;32497;48.936;9.270;2024-01-06T14:08:59;5.90;85.40
46752;DHT22;32497;48.936;9.270;2024-01-06T14:14:02;5.90;85.40
46752;DHT22;32497;48.936;9.270;2024-01-06T14:19:03;5.80;85.90
46752;DHT22;32497;48.936;9.270;2024-01-06T14:24:05;5.90;85.60
46752;DHT22;32497;48.936;9.270;2024-01-06T14:29:07;5.80;86.00
46752;DHT22;32497;48.936;9.270;2024-01-06T14:34:09;5.80;85.60
46752;DHT22;32497;48.936;9.270;2024-01-06T14:39:10;5.70;86.10
46752;DHT22;32497;48.936;9.270;2024-01-06T14:44:12;5.70;86.30
46752;DHT22;32497;48.936;9.270;2024-01-06T14:49:13;5.70;86.20
46752;DHT22;32497;48.936;9.270;2024-01-06T14:54:14;5.70;86.50
46752;DHT22;32497;48.936;9.270;2024-01-06T14:59:17;5.60;86.40
46752;DHT22;32497;48.936;9.270;2024-01-06T15:04:18;5.70;86.60
46752;DHT22;32497;48.936;9.270;2024-01-06T15:09:19;5.70;86.20
46752;DHT22;32497;48.936;9.270;2024-01-06T15:14:23;5.80;86.40
46752;DHT22;32497;48.936;9.270;2024-01-06T15:19:24;5.80;86.50
46752;DHT22;32497;48.936;9.270;2024-01-06T15:24:25;5.80;86.20
46752;DHT22;32497;48.936;9.270;2024-01-06T15:29:27;5.70;86.70
46752;DHT22;32497;48.936;9.270;2024-01-06T15:34:28;5.70;87.00
46752;DHT22;32497;48.936;9.270;2024-01-06T15:39:30;5.70;86.80
46752;DHT22;32497;48.936;9.270;2024-01-06T15:44:32;5.70;87.00
46752;DHT22;32497;48.936;9.270;2024-01-06T15:49:33;5.70;87.20
46752;DHT22;32497;48.936;9.270;2024-01-06T15:54:34;5.70;87.30
46752;DHT22;32497;48.936;9.270;2024-01-06T15:59:37;5.70;87.40
46752;DHT22;32497;48.936;9.270;2024-01-06T16:04:38;5.60;87.30
46752;DHT22;32497;48.936;9.270;2024-01-06T16:09:39;5.60;87.80
46752;DHT22;32497;48.936;9.270;2024-01-06T16:14:41;5.40;88.10
46752;DHT22;32497;48.936;9.270;2024-01-06T16:19:42;5.50;88.40
46752;DHT22;32497;48.936;9.270;2024-01-06T16:24:44;5.40;88.50
46752;DHT22;32497;48.936;9.270;2024-01-06T16:29:46;5.40;88.60
46752;DHT22;32497;48.936;9.270;2024-01-06T16:34:47;5.40;88.50
46752;DHT22;32497;48.936;9.270;2024-01-06T16:39:48;5.40;88.40
46752;DHT22;32497;48.936;9.270;2024-01-06T16:44:51;5.40;88.30
46752;DHT22;32497;48.936;9.270;2024-01-06T16:49:52;5.40;88.50
46752;DHT22;32497;48.936;9.270;2024-01-06T16:54:53;5.40;88.40
46752;DHT22;32497;48.936;9.270;2024-01-06T16:59:55;5.40;88.70
46752;DHT22;32497;48.936;9.270;2024-01-06T17:04:56;5.40;88.60
46752;DHT22;32497;48.936;9.270;2024-01-06T17:09:58;5.40;88.80
46752;DHT22;32497;48.936;9.270;2024-01-06T17:15:00;5.40;88.90
46752;DHT22;32497;48.936;9.270;2024-01-06T17:20:01;5.50;88.80
46752;DHT22;32497;48.936;9.270;2024-01-06T17:25:03;5.50;88.80
46752;DHT22;32497;48.936;9.270;2024-01-06T17:30:07;5.40;89.10
46752;DHT22;32497;48.936;9.270;2024-01-06T17:35:08;5.40;89.10
46752;DHT22;32497;48.936;9.270;2024-01-06T17:40:11;5.40;89.10
46752;DHT22;32497;48.936;9.270;2024-01-06T17:45:13;5.40;89.40
46752;DHT22;32497;48.936;9.270;2024-01-06T17:50:15;5.40;89.20
46752;DHT22;32497;48.936;9.270;2024-01-06T17:55:16;5.40;89.40
46752;DHT22;32497;48.936;9.270;2024-01-06T18:00:19;5.40;89.50
46752;DHT22;32497;48.936;9.270;2024-01-06T18:05:20;5.40;89.60
46752;DHT22;32497;48.936;9.270;2024-01-06T18:10:21;5.40;89.70
46752;DHT22;32497;48.936;9.270;2024-01-06T18:15:24;5.30;89.60
46752;DHT22;32497;48.936;9.270;2024-01-06T18:20:25;5.40;89.80
46752;DHT22;32497;48.936;9.270;2024-01-06T18:25:26;5.40;89.60
46752;DHT22;32497;48.936;9.270;2024-01-06T18:30:28;5.40;89.50
46752;DHT22;32497;48.936;9.270;2024-01-06T18:35:30;5.40;89.60
46752;DHT22;32497;48.936;9.270;2024-01-06T18:40:31;5.50;89.50
46752;DHT22;32497;48.936;9.270;2024-01-06T18:45:34;5.50;89.40
46752;DHT22;32497;48.936;9.270;2024-01-06T18:50:35;5.30;89.40
46752;DHT22;32497;48.936;9.270;2024-01-06T18:55:36;5.20;89.60
46752;DHT22;32497;48.936;9.270;2024-01-06T19:00:38;5.10;90.00
46752;DHT22;32497;48.936;9.270;2024-01-06T19:05:39;5.00;90.30
46752;DHT22;32497;48.936;9.270;2024-01-06T19:10:41;5.00;90.50
46752;DHT22;32497;48.936;9.270;2024-01-06T19:15:43;4.90;90.80
46752;DHT22;32497;48.936;9.270;2024-01-06T19:20:44;5.00;90.80
46752;DHT22;32497;48.936;9.270;2024-01-06T19:25:48;5.10;90.80
46752;DHT22;32497;48.936;9.270;2024-01-06T19:30:51;5.10;90.60
46752;DHT22;32497;48.936;9.270;2024-01-06T19:35:52;5.20;90.70
46752;DHT22;32497;48.936;9.270;2024-01-06T19:40:53;5.10;90.60
46752;DHT22;32497;48.936;9.270;2024-01-06T19:45:55;5.20;90.30
46752;DHT22;32497;48.936;9.270;2024-01-06T19:50:56;5.30;90.20
46752;DHT22;32497;48.936;9.270;2024-01-06T19:55:59;5.30;90.10
46752;DHT22;32497;48.936;9.270;2024-01-06T20:01:01;5.30;90.20
46752;DHT22;32497;48.936;9.270;2024-01-06T20:06:03;5.40;90.00
46752;DHT22;32497;48.936;9.270;2024-01-06T20:11:04;5.20;90.00
46752;DHT22;32497;48.936;9.270;2024-01-06T20:16:07;5.10;90.00
46752;DHT22;32497;48.936;9.270;2024-01-06T20:21:09;4.90;90.10
46752;DHT22;32497;48.936;9.270;2024-01-06T20:26:11;4.70;90.40
46752;DHT22;32497;48.936;9.270;2024-01-06T20:31:13;4.70;90.90
46752;DHT22;32497;48.936;9.270;2024-01-06T20:36:14;4.80;91.30
46752;DHT22;32497;48.936;9.270;2024-01-06T20:41:15;4.90;91.40
46752;DHT22;32497;48.936;9.270;2024-01-06T20:46:18;5.00;91.30
46752;DHT22;32497;48.936;9.270;2024-01-06T20:51:19;5.00;91.00
46752;DHT22;32497;48.936;9.270;2024-01-06T20:56:20;5.00;90.90
46752;DHT22;32497;48.936;9.270;2024-01-06T21:01:22;4.80;90.90
46752;DHT22;32497;48.936;9.270;2024-01-06T21:06:24;4.70;91.10
46752;DHT22;32497;48.936;9.270;2024-01-06T21:11:25;4.80;91.30
46752;DHT22;32497;48.936;9.270;2024-01-06T21:16:40;4.70;91.20
46752;DHT22;32497;48.936;9.270;2024-01-06T21:21:54;4.70;91.20
46752;DHT22;32497;48.936;9.270;2024-01-06T21:26:55;4.70;91.40
46752;DHT22;32497;48.936;9.270;2024-01-06T21:32:07;4.80;91.40
46752;DHT22;32497;48.936;9.270;2024-01-06T21:37:10;4.80;91.40
46752;DHT22;32497;48.936;9.270;2024-01-06T21:42:55;4.90;91.40
46752;DHT22;32497;48.936;9.270;2024-01-06T21:48:06;4.90;91.20
46752;DHT22;32497;48.936;9.270;2024-01-06T21:53:11;5.00;91.10
46752;DHT22;32497;48.936;9.270;2024-01-06T21:58:40;5.00;91.10
46752;DHT22;32497;48.936;9.270;2024-01-06T22:03:46;5.10;91.10
46752;DHT22;32497;48.936;9.270;2024-01-06T22:08:47;5.10;90.90
46752;DHT22;32497;48.936;9.270;2024-01-06T22:13:48;5.10;90.80
46752;DHT22;32497;48.936;9.270;2024-01-06T22:18:51;5.10;90.80
46752;DHT22;32497;48.936;9.270;2024-01-06T22:23:53;5.10;90.70
46752;DHT22;32497;48.936;9.270;2024-01-06T22:28:54;5.00;90.80
46752;DHT22;32497;48.936;9.270;2024-01-06T22:33:56;5.00;90.70
46752;DHT22;32497;48.936;9.270;2024-01-06T22:38:58;5.10;90.70
46752;DHT22;32497;48.936;9.270;2024-01-06T22:43:59;5.10;90.70
46752;DHT22;32497;48.936;9.270;2024-01-06T22:49:01;5.10;90.60
46752;DHT22;32497;48.936;9.270;2024-01-06T22:54:02;5.10;90.50
46752;DHT22;32497;48.936;9.270;2024-01-06T22:59:04;5.10;90.70
46752;DHT22;32497;48.936;9.270;2024-01-06T23:04:06;5.10;90.60
46752;DHT22;32497;48.936;9.270;2024-01-06T23:09:07;5.20;90.60
46752;DHT22;32497;48.936;9.270;2024-01-06T23:14:08;5.10;90.60
46752;DHT22;32497;48.936;9.270;2024-01-06T23:19:11;5.10;90.60
46752;DHT22;32497;48.936;9.270;2024-01-06T23:24:12;5.10;90.60
46752;DHT22;32497;48.936;9.270;2024-01-06T23:29:13;5.10;90.60
46752;DHT22;32497;48.936;9.270;2024-01-06T23:34:15;5.10;90.40
46752;DHT22;32497;48.936;9.270;2024-01-06T23:39:16;5.10;90.40
46752;DHT22;32497;48.936;9.270;2024-01-06T23:44:18;5.10;90.40
46752;DHT22;32497;48.936;9.270;2024-01-06T23:49:20;5.20;90.30
46752;DHT22;32497;48.936;9.270;2024-01-06T23:54:21;5.20;90.20
46752;DHT22;32497;48.936;9.270;2024-01-06T23:59:22;5.20;90.10
